sensor_id;sensor_type;location;lat;lon;timestamp;pressure;altitude;pressure_sealevel;temperature;humidity
59831;BME280;45711;50.108;13.712;2023-01-26T00:01:22;98403.72;;;-0.42;99.34
59831;BME280;45711;50.108;13.712;2023-01-26T00:03:49;98393.16;;;-0.49;99.86
59831;BME280;45711;50.108;13.712;2023-01-26T00:06:17;98393.97;;;-0.48;100.00
59831;BME280;45711;50.108;13.712;2023-01-26T00:08:45;98378.00;;;-0.47;100.00
59831;BME280;45711;50.108;13.712;2023-01-26T00:11:13;98394.84;;;-0.35;100.00
59831;BME280;45711;50.108;13.712;2023-01-26T00:13:41;98385.31;;;-0.42;100.00
59831;BME280;45711;50.108;13.712;2023-01-26T00:16:09;98380.28;;;-0.37;100.00
59831;BME280;45711;50.108;13.712;2023-01-26T00:18:36;98384.06;;;-0.46;99.69
59831;BME280;45711;50.108;13.712;2023-01-26T00:21:04;98376.44;;;-0.35;99.90
59831;BME280;45711;50.108;13.712;2023-01-26T00:23:31;98374.16;;;-0.44;99.69
59831;BME280;45711;50.108;13.712;2023-01-26T00:25:57;98377.59;;;-0.44;99.66
59831;BME280;45711;50.108;13.712;2023-01-26T00:28:23;98373.94;;;-0.56;99.86
59831;BME280;45711;50.108;13.712;2023-01-26T00:30:49;98374.38;;;-0.46;99.84
59831;BME280;45711;50.108;13.712;2023-01-26T00:33:15;98376.84;;;-0.31;98.99
59831;BME280;45711;50.108;13.712;2023-01-26T00:35:41;98377.03;;;-0.33;98.13
59831;BME280;45711;50.108;13.712;2023-01-26T00:38:11;98365.69;;;-0.40;98.73
59831;BME280;45711;50.108;13.712;2023-01-26T00:40:37;98363.84;;;-0.39;99.43
59831;BME280;45711;50.108;13.712;2023-01-26T00:43:03;98369.31;;;-0.47;99.02
59831;BME280;45711;50.108;13.712;2023-01-26T00:45:28;98363.63;;;-0.51;99.39
59831;BME280;45711;50.108;13.712;2023-01-26T00:47:54;98355.78;;;-0.31;99.46
59831;BME280;45711;50.108;13.712;2023-01-26T00:50:20;98356.25;;;-0.14;98.13
59831;BME280;45711;50.108;13.712;2023-01-26T00:52:45;98352.22;;;-0.17;98.97
59831;BME280;45711;50.108;13.712;2023-01-26T00:55:12;98356.25;;;-0.21;99.13
59831;BME280;45711;50.108;13.712;2023-01-26T00:57:38;98365.34;;;-0.30;99.02
59831;BME280;45711;50.108;13.712;2023-01-26T01:00:04;98368.59;;;-0.21;99.23
59831;BME280;45711;50.108;13.712;2023-01-26T01:02:30;98368.94;;;-0.38;98.91
59831;BME280;45711;50.108;13.712;2023-01-26T01:04:56;98372.00;;;-0.28;99.65
59831;BME280;45711;50.108;13.712;2023-01-26T01:07:22;98366.31;;;-0.31;99.18
59831;BME280;45711;50.108;13.712;2023-01-26T01:09:47;98367.19;;;-0.17;99.61
59831;BME280;45711;50.108;13.712;2023-01-26T01:12:14;98363.50;;;-0.23;99.43
59831;BME280;45711;50.108;13.712;2023-01-26T01:14:40;98358.44;;;-0.31;98.76
59831;BME280;45711;50.108;13.712;2023-01-26T01:17:06;98366.91;;;-0.36;99.05
59831;BME280;45711;50.108;13.712;2023-01-26T01:19:32;98361.63;;;-0.42;99.19
59831;BME280;45711;50.108;13.712;2023-01-26T01:21:57;98352.56;;;-0.33;99.19
59831;BME280;45711;50.108;13.712;2023-01-26T01:24:23;98361.47;;;-0.34;98.89
59831;BME280;45711;50.108;13.712;2023-01-26T01:26:49;98362.88;;;-0.38;98.71
59831;BME280;45711;50.108;13.712;2023-01-26T01:29:16;98358.25;;;-0.30;98.37
59831;BME280;45711;50.108;13.712;2023-01-26T01:31:41;98346.72;;;-0.29;98.58
59831;BME280;45711;50.108;13.712;2023-01-26T01:34:07;98338.16;;;-0.44;99.37
59831;BME280;45711;50.108;13.712;2023-01-26T01:36:33;98344.25;;;-0.43;99.20
59831;BME280;45711;50.108;13.712;2023-01-26T01:38:59;98337.97;;;-0.36;99.79
59831;BME280;45711;50.108;13.712;2023-01-26T01:41:25;98344.63;;;-0.46;99.13
59831;BME280;45711;50.108;13.712;2023-01-26T01:44:11;98353.38;;;-0.33;98.77
59831;BME280;45711;50.108;13.712;2023-01-26T01:46:39;98350.06;;;-0.48;98.46
59831;BME280;45711;50.108;13.712;2023-01-26T01:49:15;98347.88;;;-0.44;99.24
59831;BME280;45711;50.108;13.712;2023-01-26T01:51:44;98348.91;;;-0.39;98.81
59831;BME280;45711;50.108;13.712;2023-01-26T01:54:14;98339.88;;;-0.16;98.80
59831;BME280;45711;50.108;13.712;2023-01-26T01:56:44;98341.03;;;-0.32;98.67
59831;BME280;45711;50.108;13.712;2023-01-26T01:59:12;98344.09;;;-0.29;98.64
59831;BME280;45711;50.108;13.712;2023-01-26T02:01:40;98339.53;;;0.13;99.48
59831;BME280;45711;50.108;13.712;2023-01-26T02:04:06;98337.06;;;-0.08;98.32
59831;BME280;45711;50.108;13.712;2023-01-26T02:06:35;98339.06;;;-0.17;97.63
59831;BME280;45711;50.108;13.712;2023-01-26T02:09:04;98323.91;;;-0.08;98.76
59831;BME280;45711;50.108;13.712;2023-01-26T02:11:32;98332.53;;;-0.28;98.80
59831;BME280;45711;50.108;13.712;2023-01-26T02:14:01;98329.31;;;-0.30;98.50
59831;BME280;45711;50.108;13.712;2023-01-26T02:16:28;98329.72;;;-0.33;97.98
59831;BME280;45711;50.108;13.712;2023-01-26T02:18:55;98318.00;;;-0.30;99.51
59831;BME280;45711;50.108;13.712;2023-01-26T02:21:22;98323.66;;;-0.20;98.19
59831;BME280;45711;50.108;13.712;2023-01-26T02:23:59;98320.47;;;-0.09;98.31
59831;BME280;45711;50.108;13.712;2023-01-26T02:26:29;98319.19;;;-0.33;98.33
59831;BME280;45711;50.108;13.712;2023-01-26T02:28:57;98316.53;;;-0.46;98.27
59831;BME280;45711;50.108;13.712;2023-01-26T02:31:24;98309.88;;;-0.35;98.57
59831;BME280;45711;50.108;13.712;2023-01-26T02:33:49;98302.59;;;-0.33;98.89
59831;BME280;45711;50.108;13.712;2023-01-26T02:36:17;98305.44;;;-0.35;99.25
59831;BME280;45711;50.108;13.712;2023-01-26T02:38:50;98294.28;;;-0.37;98.45
59831;BME280;45711;50.108;13.712;2023-01-26T02:41:16;98299.38;;;-0.29;98.56
59831;BME280;45711;50.108;13.712;2023-01-26T02:44:03;98298.13;;;-0.39;98.59
59831;BME280;45711;50.108;13.712;2023-01-26T02:46:31;98298.75;;;-0.31;99.53
59831;BME280;45711;50.108;13.712;2023-01-26T02:48:56;98293.69;;;-0.32;99.88
59831;BME280;45711;50.108;13.712;2023-01-26T02:51:40;98286.81;;;-0.33;99.51
59831;BME280;45711;50.108;13.712;2023-01-26T02:54:06;98287.44;;;-0.24;98.05
59831;BME280;45711;50.108;13.712;2023-01-26T02:56:32;98277.50;;;-0.36;97.83
59831;BME280;45711;50.108;13.712;2023-01-26T02:58:57;98281.97;;;-0.30;97.76
59831;BME280;45711;50.108;13.712;2023-01-26T03:01:24;98274.66;;;-0.41;98.31
59831;BME280;45711;50.108;13.712;2023-01-26T03:03:50;98270.84;;;-0.38;98.79
59831;BME280;45711;50.108;13.712;2023-01-26T03:06:16;98274.44;;;-0.39;99.47
59831;BME280;45711;50.108;13.712;2023-01-26T03:08:41;98267.59;;;-0.47;100.00
59831;BME280;45711;50.108;13.712;2023-01-26T03:11:07;98258.28;;;-0.36;100.00
59831;BME280;45711;50.108;13.712;2023-01-26T03:13:33;98257.94;;;0.00;98.94
59831;BME280;45711;50.108;13.712;2023-01-26T03:15:59;98254.84;;;-0.37;98.99
59831;BME280;45711;50.108;13.712;2023-01-26T03:18:33;98248.16;;;-0.46;100.00
59831;BME280;45711;50.108;13.712;2023-01-26T03:21:17;98258.13;;;-0.08;100.00
59831;BME280;45711;50.108;13.712;2023-01-26T03:24:02;98259.50;;;-0.39;100.00
59831;BME280;45711;50.108;13.712;2023-01-26T03:26:46;98256.25;;;-0.41;100.00
59831;BME280;45711;50.108;13.712;2023-01-26T03:29:31;98248.56;;;-0.42;100.00
59831;BME280;45711;50.108;13.712;2023-01-26T03:31:57;98254.44;;;-0.27;100.00
59831;BME280;45711;50.108;13.712;2023-01-26T03:34:30;98247.19;;;-0.12;100.00
59831;BME280;45711;50.108;13.712;2023-01-26T03:36:56;98240.72;;;-0.29;99.37
59831;BME280;45711;50.108;13.712;2023-01-26T03:39:22;98240.28;;;-0.46;100.00
59831;BME280;45711;50.108;13.712;2023-01-26T03:42:06;98237.84;;;-0.47;100.00
59831;BME280;45711;50.108;13.712;2023-01-26T03:44:50;98237.44;;;-0.44;100.00
59831;BME280;45711;50.108;13.712;2023-01-26T03:47:34;98239.47;;;-0.46;100.00
59831;BME280;45711;50.108;13.712;2023-01-26T03:50:21;98240.69;;;-0.42;100.00
59831;BME280;45711;50.108;13.712;2023-01-26T03:53:12;98236.66;;;-0.38;100.00
59831;BME280;45711;50.108;13.712;2023-01-26T03:55:56;98241.50;;;-0.29;99.64
59831;BME280;45711;50.108;13.712;2023-01-26T03:58:42;98242.72;;;-0.38;100.00
59831;BME280;45711;50.108;13.712;2023-01-26T04:01:08;98235.44;;;-0.36;100.00
59831;BME280;45711;50.108;13.712;2023-01-26T04:03:35;98237.06;;;-0.28;100.00
59831;BME280;45711;50.108;13.712;2023-01-26T04:06:21;98240.06;;;-0.44;100.00
59831;BME280;45711;50.108;13.712;2023-01-26T04:09:05;98238.66;;;-0.40;99.26
59831;BME280;45711;50.108;13.712;2023-01-26T04:11:30;98230.38;;;-0.24;98.84
59831;BME280;45711;50.108;13.712;2023-01-26T04:13:56;98223.72;;;-0.33;98.90
59831;BME280;45711;50.108;13.712;2023-01-26T04:16:40;98223.91;;;-0.35;98.96
59831;BME280;45711;50.108;13.712;2023-01-26T04:19:24;98223.72;;;-0.33;98.79
59831;BME280;45711;50.108;13.712;2023-01-26T04:22:12;98220.69;;;-0.30;98.96
59831;BME280;45711;50.108;13.712;2023-01-26T04:24:39;98214.00;;;-0.33;98.86
59831;BME280;45711;50.108;13.712;2023-01-26T04:27:04;98212.53;;;-0.48;100.00
59831;BME280;45711;50.108;13.712;2023-01-26T04:29:30;98217.63;;;-0.47;99.91
59831;BME280;45711;50.108;13.712;2023-01-26T04:31:56;98218.22;;;-0.45;99.75
59831;BME280;45711;50.108;13.712;2023-01-26T04:34:21;98225.13;;;-0.37;100.00
59831;BME280;45711;50.108;13.712;2023-01-26T04:36:47;98217.47;;;-0.12;99.53
59831;BME280;45711;50.108;13.712;2023-01-26T04:39:14;98212.81;;;-0.17;98.59
59831;BME280;45711;50.108;13.712;2023-01-26T04:41:40;98211.97;;;-0.24;98.56
59831;BME280;45711;50.108;13.712;2023-01-26T04:44:08;98206.94;;;-0.26;98.69
59831;BME280;45711;50.108;13.712;2023-01-26T04:46:36;98205.28;;;-0.40;99.63
59831;BME280;45711;50.108;13.712;2023-01-26T04:49:05;98209.53;;;-0.45;100.00
59831;BME280;45711;50.108;13.712;2023-01-26T04:51:30;98209.91;;;-0.48;100.00
59831;BME280;45711;50.108;13.712;2023-01-26T04:53:56;98209.75;;;-0.47;100.00
59831;BME280;45711;50.108;13.712;2023-01-26T04:56:24;98209.53;;;-0.45;100.00
59831;BME280;45711;50.108;13.712;2023-01-26T04:58:50;98211.56;;;-0.34;100.00
59831;BME280;45711;50.108;13.712;2023-01-26T05:01:17;98198.41;;;-0.61;100.00
59831;BME280;45711;50.108;13.712;2023-01-26T05:03:43;98197.59;;;-0.55;100.00
59831;BME280;45711;50.108;13.712;2023-01-26T05:06:09;98196.78;;;-0.55;100.00
59831;BME280;45711;50.108;13.712;2023-01-26T05:08:35;98210.13;;;-0.50;100.00
59831;BME280;45711;50.108;13.712;2023-01-26T05:11:01;98208.06;;;-0.68;100.00
59831;BME280;45711;50.108;13.712;2023-01-26T05:13:28;98201.84;;;-0.27;99.98
59831;BME280;45711;50.108;13.712;2023-01-26T05:15:54;98209.34;;;-0.37;97.64
59831;BME280;45711;50.108;13.712;2023-01-26T05:18:22;98197.38;;;-0.60;98.28
59831;BME280;45711;50.108;13.712;2023-01-26T05:20:48;98210.13;;;-0.50;98.93
59831;BME280;45711;50.108;13.712;2023-01-26T05:23:14;98197.78;;;-0.69;98.77
59831;BME280;45711;50.108;13.712;2023-01-26T05:25:39;98195.97;;;-0.36;99.25
59831;BME280;45711;50.108;13.712;2023-01-26T05:28:05;98196.97;;;-0.57;97.93
59831;BME280;45711;50.108;13.712;2023-01-26T05:30:32;98185.25;;;-0.61;99.07
59831;BME280;45711;50.108;13.712;2023-01-26T05:33:01;98193.75;;;-0.65;99.72
59831;BME280;45711;50.108;13.712;2023-01-26T05:35:27;98192.91;;;-0.53;100.00
59831;BME280;45711;50.108;13.712;2023-01-26T05:37:53;98194.91;;;-0.81;100.00
59831;BME280;45711;50.108;13.712;2023-01-26T05:40:19;98196.53;;;-0.73;100.00
59831;BME280;45711;50.108;13.712;2023-01-26T05:42:46;98189.31;;;-0.52;100.00
59831;BME280;45711;50.108;13.712;2023-01-26T05:45:12;98199.78;;;-0.71;98.73
59831;BME280;45711;50.108;13.712;2023-01-26T05:47:39;98202.63;;;-0.73;99.39
59831;BME280;45711;50.108;13.712;2023-01-26T05:50:08;98197.34;;;-0.73;99.24
59831;BME280;45711;50.108;13.712;2023-01-26T05:52:33;98206.47;;;-0.69;100.00
59831;BME280;45711;50.108;13.712;2023-01-26T05:54:59;98206.22;;;-0.81;99.63
59831;BME280;45711;50.108;13.712;2023-01-26T05:57:25;98207.41;;;-0.90;100.00
59831;BME280;45711;50.108;13.712;2023-01-26T05:59:50;98203.34;;;-0.92;100.00
59831;BME280;45711;50.108;13.712;2023-01-26T06:02:19;98196.09;;;-0.90;99.20
59831;BME280;45711;50.108;13.712;2023-01-26T06:04:47;98201.53;;;-0.92;98.92
59831;BME280;45711;50.108;13.712;2023-01-26T06:07:15;98204.56;;;-0.88;99.17
59831;BME280;45711;50.108;13.712;2023-01-26T06:09:41;98199.16;;;-0.80;98.71
59831;BME280;45711;50.108;13.712;2023-01-26T06:12:12;98199.75;;;-0.91;98.31
59831;BME280;45711;50.108;13.712;2023-01-26T06:14:39;98202.94;;;-0.96;98.80
59831;BME280;45711;50.108;13.712;2023-01-26T06:17:05;98203.16;;;-0.91;98.60
59831;BME280;45711;50.108;13.712;2023-01-26T06:19:30;98211.28;;;-0.79;97.65
59831;BME280;45711;50.108;13.712;2023-01-26T06:21:57;98205.84;;;-0.78;98.27
59831;BME280;45711;50.108;13.712;2023-01-26T06:24:23;98206.81;;;-0.85;97.97
59831;BME280;45711;50.108;13.712;2023-01-26T06:26:49;98211.03;;;-0.97;97.51
59831;BME280;45711;50.108;13.712;2023-01-26T06:29:15;98197.69;;;-0.96;97.60
59831;BME280;45711;50.108;13.712;2023-01-26T06:31:41;98211.06;;;-0.84;96.82
59831;BME280;45711;50.108;13.712;2023-01-26T06:34:07;98200.94;;;-0.87;96.53
59831;BME280;45711;50.108;13.712;2023-01-26T06:36:33;98204.56;;;-0.95;96.54
59831;BME280;45711;50.108;13.712;2023-01-26T06:39:00;98197.88;;;-1.04;96.80
59831;BME280;45711;50.108;13.712;2023-01-26T06:41:26;98192.84;;;-0.99;96.97
59831;BME280;45711;50.108;13.712;2023-01-26T06:43:52;98200.31;;;-0.96;96.72
59831;BME280;45711;50.108;13.712;2023-01-26T06:46:18;98198.72;;;-0.84;97.45
59831;BME280;45711;50.108;13.712;2023-01-26T06:48:44;98190.44;;;-0.94;95.83
59831;BME280;45711;50.108;13.712;2023-01-26T06:51:45;98194.53;;;-0.78;96.09
59831;BME280;45711;50.108;13.712;2023-01-26T06:54:13;98195.28;;;-0.91;96.71
59831;BME280;45711;50.108;13.712;2023-01-26T06:56:39;98191.31;;;-0.60;96.72
59831;BME280;45711;50.108;13.712;2023-01-26T06:59:05;98195.63;;;-1.01;96.19
59831;BME280;45711;50.108;13.712;2023-01-26T07:01:33;98188.78;;;-1.08;96.90
59831;BME280;45711;50.108;13.712;2023-01-26T07:04:00;98199.44;;;-1.10;96.61
59831;BME280;45711;50.108;13.712;2023-01-26T07:06:25;98195.88;;;-0.95;98.15
59831;BME280;45711;50.108;13.712;2023-01-26T07:08:51;98196.28;;;-0.98;97.19
59831;BME280;45711;50.108;13.712;2023-01-26T07:11:18;98202.97;;;-0.89;96.05
59831;BME280;45711;50.108;13.712;2023-01-26T07:13:45;98205.38;;;-0.94;96.53
59831;BME280;45711;50.108;13.712;2023-01-26T07:16:12;98201.00;;;-0.67;98.47
59831;BME280;45711;50.108;13.712;2023-01-26T07:18:38;98197.13;;;-0.85;95.83
59831;BME280;45711;50.108;13.712;2023-01-26T07:21:09;98203.81;;;-0.82;95.51
59831;BME280;45711;50.108;13.712;2023-01-26T07:23:35;98198.34;;;-0.81;95.82
59831;BME280;45711;50.108;13.712;2023-01-26T07:26:01;98188.22;;;-0.84;95.55
59831;BME280;45711;50.108;13.712;2023-01-26T07:28:28;98192.66;;;-0.91;95.77
59831;BME280;45711;50.108;13.712;2023-01-26T07:30:59;98183.94;;;-0.98;96.23
59831;BME280;45711;50.108;13.712;2023-01-26T07:33:25;98183.78;;;-0.77;96.66
59831;BME280;45711;50.108;13.712;2023-01-26T07:35:51;98186.25;;;-0.55;96.63
59831;BME280;45711;50.108;13.712;2023-01-26T07:38:20;98189.69;;;-0.48;96.63
59831;BME280;45711;50.108;13.712;2023-01-26T07:40:46;98198.00;;;-0.51;96.84
59831;BME280;45711;50.108;13.712;2023-01-26T07:43:12;98189.31;;;-0.52;96.11
59831;BME280;45711;50.108;13.712;2023-01-26T07:45:44;98199.41;;;-0.55;96.23
59831;BME280;45711;50.108;13.712;2023-01-26T07:48:10;98188.25;;;-0.57;95.46
59831;BME280;45711;50.108;13.712;2023-01-26T07:50:35;98189.47;;;-0.66;96.92
59831;BME280;45711;50.108;13.712;2023-01-26T07:53:01;98190.72;;;0.04;97.20
59831;BME280;45711;50.108;13.712;2023-01-26T07:55:27;98182.63;;;0.19;96.59
59831;BME280;45711;50.108;13.712;2023-01-26T07:57:55;98183.63;;;0.11;93.53
59831;BME280;45711;50.108;13.712;2023-01-26T08:00:22;98194.16;;;-0.02;95.65
59831;BME280;45711;50.108;13.712;2023-01-26T08:02:49;98190.94;;;-0.24;96.80
59831;BME280;45711;50.108;13.712;2023-01-26T08:05:15;98178.78;;;0.15;97.43
59831;BME280;45711;50.108;13.712;2023-01-26T08:07:41;98192.75;;;0.02;95.27
59831;BME280;45711;50.108;13.712;2023-01-26T08:10:10;98190.09;;;-0.44;94.37
59831;BME280;45711;50.108;13.712;2023-01-26T08:12:37;98192.03;;;-0.99;95.83
59831;BME280;45711;50.108;13.712;2023-01-26T08:15:03;98192.88;;;-0.86;96.11
59831;BME280;45711;50.108;13.712;2023-01-26T08:17:29;98190.81;;;-0.97;96.82
59831;BME280;45711;50.108;13.712;2023-01-26T08:19:56;98190.06;;;-0.78;96.94
59831;BME280;45711;50.108;13.712;2023-01-26T08:22:22;98186.84;;;-0.73;96.30
59831;BME280;45711;50.108;13.712;2023-01-26T08:24:48;98187.63;;;-0.86;95.69
59831;BME280;45711;50.108;13.712;2023-01-26T08:27:13;98188.88;;;-0.55;95.97
59831;BME280;45711;50.108;13.712;2023-01-26T08:29:40;98200.44;;;-0.56;95.05
59831;BME280;45711;50.108;13.712;2023-01-26T08:32:06;98193.50;;;-0.70;95.19
59831;BME280;45711;50.108;13.712;2023-01-26T08:34:33;98195.97;;;-0.56;95.58
59831;BME280;45711;50.108;13.712;2023-01-26T08:37:00;98185.28;;;-0.47;96.89
59831;BME280;45711;50.108;13.712;2023-01-26T08:39:26;98186.88;;;-0.07;96.47
59831;BME280;45711;50.108;13.712;2023-01-26T08:41:52;98195.81;;;-0.21;95.23
59831;BME280;45711;50.108;13.712;2023-01-26T08:44:17;98185.47;;;-0.16;95.38
59831;BME280;45711;50.108;13.712;2023-01-26T08:46:43;98184.47;;;-0.21;95.15
59831;BME280;45711;50.108;13.712;2023-01-26T08:49:09;98178.41;;;-0.09;97.32
59831;BME280;45711;50.108;13.712;2023-01-26T08:51:34;98188.28;;;-0.44;95.20
59831;BME280;45711;50.108;13.712;2023-01-26T08:54:04;98191.31;;;-0.40;94.96
59831;BME280;45711;50.108;13.712;2023-01-26T08:56:29;98193.16;;;-0.41;95.44
59831;BME280;45711;50.108;13.712;2023-01-26T08:58:55;98192.06;;;-0.80;94.49
59831;BME280;45711;50.108;13.712;2023-01-26T09:01:21;98198.38;;;-0.67;95.89
59831;BME280;45711;50.108;13.712;2023-01-26T09:03:46;98189.28;;;-0.65;95.54
59831;BME280;45711;50.108;13.712;2023-01-26T09:06:13;98188.25;;;-0.57;95.67
59831;BME280;45711;50.108;13.712;2023-01-26T09:08:40;98190.91;;;-0.57;95.33
59831;BME280;45711;50.108;13.712;2023-01-26T09:11:08;98189.50;;;-0.53;95.43
59831;BME280;45711;50.108;13.712;2023-01-26T09:13:34;98193.97;;;-0.01;97.14
59831;BME280;45711;50.108;13.712;2023-01-26T09:16:02;98194.75;;;-0.40;93.96
59831;BME280;45711;50.108;13.712;2023-01-26T09:18:28;98183.03;;;-0.24;96.22
59831;BME280;45711;50.108;13.712;2023-01-26T09:20:53;98189.09;;;-0.50;94.71
59831;BME280;45711;50.108;13.712;2023-01-26T09:23:20;98187.69;;;-0.46;97.42
59831;BME280;45711;50.108;13.712;2023-01-26T09:25:51;98185.56;;;-0.97;95.68
59831;BME280;45711;50.108;13.712;2023-01-26T09:28:20;98188.19;;;-1.04;96.41
59831;BME280;45711;50.108;13.712;2023-01-26T09:30:45;98188.41;;;-0.92;95.24
59831;BME280;45711;50.108;13.712;2023-01-26T09:33:11;98192.91;;;-0.72;96.21
59831;BME280;45711;50.108;13.712;2023-01-26T09:35:37;98188.66;;;-0.73;95.29
59831;BME280;45711;50.108;13.712;2023-01-26T09:38:02;98178.16;;;-0.73;95.12
59831;BME280;45711;50.108;13.712;2023-01-26T09:40:36;98176.31;;;-0.66;95.61
59831;BME280;45711;50.108;13.712;2023-01-26T09:43:15;98171.09;;;-0.40;95.65
59831;BME280;45711;50.108;13.712;2023-01-26T09:45:53;98174.34;;;-0.18;94.43
59831;BME280;45711;50.108;13.712;2023-01-26T09:48:30;98165.84;;;-0.13;95.05
59831;BME280;45711;50.108;13.712;2023-01-26T09:51:02;98170.28;;;0.06;94.60
59831;BME280;45711;50.108;13.712;2023-01-26T09:53:40;98168.91;;;0.68;97.23
59831;BME280;45711;50.108;13.712;2023-01-26T09:56:13;98178.72;;;0.41;94.14
59831;BME280;45711;50.108;13.712;2023-01-26T09:58:39;98171.47;;;0.17;92.95
59831;BME280;45711;50.108;13.712;2023-01-26T10:01:17;98182.22;;;-0.38;93.74
59831;BME280;45711;50.108;13.712;2023-01-26T10:03:49;98181.63;;;0.00;94.90
59831;BME280;45711;50.108;13.712;2023-01-26T10:06:20;98172.53;;;-0.24;94.01
59831;BME280;45711;50.108;13.712;2023-01-26T10:08:48;98178.19;;;-0.27;93.80
59831;BME280;45711;50.108;13.712;2023-01-26T10:11:18;98179.41;;;-0.16;94.19
59831;BME280;45711;50.108;13.712;2023-01-26T10:13:50;98174.75;;;-0.34;94.36
59831;BME280;45711;50.108;13.712;2023-01-26T10:16:21;98181.84;;;-0.35;93.66
59831;BME280;45711;50.108;13.712;2023-01-26T10:18:52;98172.13;;;-0.41;94.31
59831;BME280;45711;50.108;13.712;2023-01-26T10:21:22;98176.56;;;-0.28;95.60
59831;BME280;45711;50.108;13.712;2023-01-26T10:23:51;98171.91;;;-0.19;94.08
59831;BME280;45711;50.108;13.712;2023-01-26T10:26:18;98167.06;;;-0.22;95.57
59831;BME280;45711;50.108;13.712;2023-01-26T10:28:46;98161.81;;;-0.42;94.70
59831;BME280;45711;50.108;13.712;2023-01-26T10:31:15;98163.00;;;-0.18;95.63
59831;BME280;45711;50.108;13.712;2023-01-26T10:33:47;98154.09;;;-0.11;95.90
59831;BME280;45711;50.108;13.712;2023-01-26T10:36:14;98159.97;;;-0.22;93.83
59831;BME280;45711;50.108;13.712;2023-01-26T10:38:41;98162.41;;;-0.20;94.76
59831;BME280;45711;50.108;13.712;2023-01-26T10:41:22;98159.38;;;-0.04;94.49
59831;BME280;45711;50.108;13.712;2023-01-26T10:43:53;98160.75;;;0.12;93.47
59831;BME280;45711;50.108;13.712;2023-01-26T10:46:30;98156.66;;;0.36;93.88
59831;BME280;45711;50.108;13.712;2023-01-26T10:49:03;98159.69;;;0.26;93.09
59831;BME280;45711;50.108;13.712;2023-01-26T10:51:40;98156.03;;;0.40;95.04
59831;BME280;45711;50.108;13.712;2023-01-26T10:54:20;98155.50;;;-0.02;92.78
59831;BME280;45711;50.108;13.712;2023-01-26T10:56:49;98151.25;;;-0.09;93.52
59831;BME280;45711;50.108;13.712;2023-01-26T10:59:24;98153.84;;;0.24;94.70
59831;BME280;45711;50.108;13.712;2023-01-26T11:01:52;98166.63;;;0.07;93.17
59831;BME280;45711;50.108;13.712;2023-01-26T11:04:21;98166.66;;;-0.06;93.18
59831;BME280;45711;50.108;13.712;2023-01-26T11:06:47;98151.28;;;-0.29;94.13
59831;BME280;45711;50.108;13.712;2023-01-26T11:09:21;98158.34;;;-0.36;93.99
59831;BME280;45711;50.108;13.712;2023-01-26T11:11:58;98149.59;;;0.16;96.48
59831;BME280;45711;50.108;13.712;2023-01-26T11:14:28;98145.22;;;-0.16;94.26
59831;BME280;45711;50.108;13.712;2023-01-26T11:16:59;98134.50;;;-0.21;94.29
59831;BME280;45711;50.108;13.712;2023-01-26T11:19:49;98140.38;;;-0.26;94.49
59831;BME280;45711;50.108;13.712;2023-01-26T11:22:26;98141.16;;;0.01;96.03
59831;BME280;45711;50.108;13.712;2023-01-26T11:24:59;98139.50;;;0.07;93.37
59831;BME280;45711;50.108;13.712;2023-01-26T11:27:35;98146.03;;;-0.16;94.26
59831;BME280;45711;50.108;13.712;2023-01-26T11:30:18;98125.19;;;-0.24;95.22
59831;BME280;45711;50.108;13.712;2023-01-26T11:32:54;98130.22;;;-0.09;94.89
59831;BME280;45711;50.108;13.712;2023-01-26T11:35:29;98124.94;;;0.04;94.49
59831;BME280;45711;50.108;13.712;2023-01-26T11:38:05;98127.38;;;-0.14;94.03
59831;BME280;45711;50.108;13.712;2023-01-26T11:40:40;98129.38;;;0.10;93.85
59831;BME280;45711;50.108;13.712;2023-01-26T11:46:32;98122.94;;;-0.14;93.89
59831;BME280;45711;50.108;13.712;2023-01-26T11:49:10;98117.88;;;-0.15;93.70
59831;BME280;45711;50.108;13.712;2023-01-26T11:51:55;98119.81;;;0.29;96.14
59831;BME280;45711;50.108;13.712;2023-01-26T11:54:54;98123.53;;;-0.05;93.80
59831;BME280;45711;50.108;13.712;2023-01-26T11:57:26;98121.75;;;-0.24;94.65
59831;BME280;45711;50.108;13.712;2023-01-26T12:00:00;98116.88;;;-0.08;94.94
59831;BME280;45711;50.108;13.712;2023-01-26T12:02:35;98107.56;;;-0.10;94.84
59831;BME280;45711;50.108;13.712;2023-01-26T12:05:05;98114.66;;;-0.17;94.24
59831;BME280;45711;50.108;13.712;2023-01-26T12:07:47;98106.38;;;-0.28;94.94
59831;BME280;45711;50.108;13.712;2023-01-26T12:10:26;98106.75;;;-0.31;95.20
59831;BME280;45711;50.108;13.712;2023-01-26T12:12:58;98099.31;;;-0.34;94.49
59831;BME280;45711;50.108;13.712;2023-01-26T12:15:31;98098.88;;;-0.44;95.02
59831;BME280;45711;50.108;13.712;2023-01-26T12:18:03;98097.44;;;-0.27;95.08
59831;BME280;45711;50.108;13.712;2023-01-26T12:20:35;98102.31;;;-0.23;94.22
59831;BME280;45711;50.108;13.712;2023-01-26T12:23:23;98094.22;;;-0.22;93.75
59831;BME280;45711;50.108;13.712;2023-01-26T12:25:55;98086.94;;;-0.27;93.97
59831;BME280;45711;50.108;13.712;2023-01-26T12:28:25;98086.50;;;-0.10;95.53
59831;BME280;45711;50.108;13.712;2023-01-26T12:30:58;98086.53;;;-0.23;95.24
59831;BME280;45711;50.108;13.712;2023-01-26T12:33:27;98078.44;;;-0.22;95.28
59831;BME280;45711;50.108;13.712;2023-01-26T12:36:10;98077.59;;;-0.09;94.59
59831;BME280;45711;50.108;13.712;2023-01-26T12:38:51;98071.56;;;-0.16;93.82
59831;BME280;45711;50.108;13.712;2023-01-26T12:41:29;98066.50;;;-0.11;95.78
59831;BME280;45711;50.108;13.712;2023-01-26T12:44:09;98064.03;;;0.52;96.91
59831;BME280;45711;50.108;13.712;2023-01-26T12:46:46;98054.13;;;-0.04;93.05
59831;BME280;45711;50.108;13.712;2023-01-26T12:49:17;98062.56;;;0.11;92.38
59831;BME280;45711;50.108;13.712;2023-01-26T12:51:49;98056.56;;;0.49;92.22
59831;BME280;45711;50.108;13.712;2023-01-26T12:54:32;98055.19;;;0.33;90.71
59831;BME280;45711;50.108;13.712;2023-01-26T12:57:08;98050.78;;;0.20;93.07
59831;BME280;45711;50.108;13.712;2023-01-26T12:59:40;98059.94;;;0.11;93.45
59831;BME280;45711;50.108;13.712;2023-01-26T13:02:17;98057.25;;;0.24;93.27
59831;BME280;45711;50.108;13.712;2023-01-26T13:04:45;98053.59;;;0.25;94.58
59831;BME280;45711;50.108;13.712;2023-01-26T13:07:27;98054.31;;;0.53;94.63